Time;durP1;ratioP1;P1;durP2;ratioP2;P2;SDS_P1;SDS_P2;PMS_P1;PMS_P2;Temp;Humidity;BMP_temperature;BMP_pressure;BME280_temperature;BME280_humidity;BME280_pressure;Samples;Min_cycle;Max_cycle;Signal;HPM_P1;HPM_P2
2021/10/01 00:00:24;;;;;;;11.20;10.00;;;;;;;12.24;100.00;101559.31;5129249;27;20503;-62
2021/10/01 00:02:49;;;;;;;14.02;10.93;;;;;;;12.18;100.00;101543.63;5129263;27;20027;-62
2021/10/01 00:05:15;;;;;;;16.17;11.15;;;;;;;12.18;100.00;101551.72;5129265;27;20023;-62
2021/10/01 00:07:41;;;;;;;16.15;10.05;;;;;;;12.17;100.00;101547.31;5128961;27;20109;-62
2021/10/01 00:10:07;;;;;;;27.70;10.10;;;;;;;12.12;100.00;101552.19;5127493;28;20188;-62
2021/10/01 00:12:33;;;;;;;12.82;10.18;;;;;;;12.11;100.00;101548.63;5129262;27;20529;-62
2021/10/01 00:14:59;;;;;;;21.23;10.52;;;;;;;12.06;100.00;101547.28;5131885;27;20035;-62
2021/10/01 00:17:25;;;;;;;15.65;11.00;;;;;;;12.05;100.00;101548.22;5132849;27;20402;-63
2021/10/01 00:19:52;;;;;;;13.45;10.18;;;;;;;12.00;100.00;101548.59;5133097;27;20031;-62
2021/10/01 00:22:18;;;;;;;12.57;9.55;;;;;;;12.01;100.00;101549.44;5133167;27;20031;-62
2021/10/01 00:24:43;;;;;;;12.48;8.68;;;;;;;12.01;100.00;101547.59;5132874;27;20397;-62
2021/10/01 00:27:09;;;;;;;10.25;8.52;;;;;;;11.97;100.00;101539.88;5132919;27;20027;-61
2021/10/01 00:29:36;;;;;;;8.70;7.80;;;;;;;11.97;100.00;101546.13;5132695;27;20024;-62
2021/10/01 00:32:01;;;;;;;8.38;7.47;;;;;;;11.94;100.00;101534.72;5132709;27;20034;-61
2021/10/01 00:34:27;;;;;;;22.02;8.70;;;;;;;11.91;100.00;101541.19;5132833;27;20023;-62
2021/10/01 00:36:52;;;;;;;28.73;8.23;;;;;;;11.91;100.00;101537.63;5132395;27;20111;-62
2021/10/01 00:39:18;;;;;;;24.15;7.63;;;;;;;11.89;100.00;101544.94;5132851;27;20054;-62
2021/10/01 00:41:43;;;;;;;9.05;7.97;;;;;;;11.82;100.00;101546.38;5132609;27;20088;-62
2021/10/01 00:44:09;;;;;;;11.93;7.20;;;;;;;11.75;100.00;101537.91;5132571;27;20276;-62
2021/10/01 00:46:35;;;;;;;17.35;7.63;;;;;;;11.70;100.00;101539.22;5131242;27;20397;-63
2021/10/01 00:49:00;;;;;;;9.10;6.88;;;;;;;11.63;100.00;101536.13;5131059;27;20031;-62
2021/10/01 00:51:26;;;;;;;7.82;7.05;;;;;;;11.62;100.00;101544.28;5130790;27;20518;-62
2021/10/01 00:53:54;;;;;;;8.95;7.50;;;;;;;11.60;100.00;101536.31;5132402;27;20050;-62
2021/10/01 00:56:20;;;;;;;8.13;7.07;;;;;;;11.57;100.00;101544.59;5132624;27;20034;-62
2021/10/01 00:58:46;;;;;;;8.60;7.70;;;;;;;11.53;100.00;101538.59;5132527;27;20394;-62
2021/10/01 01:01:11;;;;;;;8.27;7.47;;;;;;;11.52;100.00;101533.34;5132127;27;20027;-63
2021/10/01 01:03:45;;;;;;;9.07;7.63;;;;;;;11.51;100.00;101534.28;5131152;27;20091;-62
2021/10/01 01:06:29;;;;;;;9.30;7.97;;;;;;;11.52;100.00;101528.78;5131958;27;20041;-62
2021/10/01 01:09:18;;;;;;;10.73;8.63;;;;;;;11.57;100.00;101523.97;5131944;27;20023;-62
2021/10/01 01:11:53;;;;;;;11.32;8.48;;;;;;;11.62;100.00;101529.03;5132035;27;20035;-62
2021/10/01 01:14:22;;;;;;;;;;;;;;;11.64;100.00;101520.88;5132552;27;20031;-62
2021/10/01 01:16:49;;;;;;;24.23;10.82;;;;;;;11.65;100.00;101522.56;5132321;27;19922;-62
2021/10/01 01:19:30;;;;;;;20.80;11.60;;;;;;;11.67;100.00;101529.53;5131846;27;20035;-62
2021/10/01 01:22:05;;;;;;;23.10;12.18;;;;;;;11.68;100.00;101522.34;5130784;27;20027;-62
2021/10/01 01:24:56;;;;;;;18.50;11.10;;;;;;;11.72;100.00;101521.16;5131648;27;20030;-62
2021/10/01 01:28:00;;;;;;;21.55;12.93;;;;;;;11.75;100.00;101524.47;5131446;27;20514;-62
2021/10/01 01:30:35;;;;;;;21.35;12.57;;;;;;;11.78;100.00;101524.25;5047951;28;20025;-62
2021/10/01 01:33:01;;;;;;;25.25;13.43;;;;;;;11.78;100.00;101510.81;5047899;28;20029;-62
2021/10/01 01:35:34;;;;;;;27.88;13.85;;;;;;;11.83;100.00;101522.06;5082390;27;20213;-62
2021/10/01 01:38:07;;;;;;;23.25;14.25;;;;;;;11.88;100.00;101519.03;5131580;27;20027;-62
2021/10/01 01:40:34;;;;;;;26.95;14.48;;;;;;;11.89;100.00;101527.00;5131737;27;20088;-62
2021/10/01 01:43:03;;;;;;;33.00;13.48;;;;;;;11.91;100.00;101530.44;5131432;27;20064;-63
2021/10/01 01:45:29;;;;;;;24.13;13.30;;;;;;;11.89;100.00;101527.00;5129787;27;20059;-62
2021/10/01 01:47:56;;;;;;;27.20;15.50;;;;;;;11.85;100.00;101519.28;5131420;27;20490;-62
2021/10/01 01:50:22;;;;;;;26.30;15.40;;;;;;;11.89;100.00;101526.13;5131417;27;20077;-62
2021/10/01 01:52:50;;;;;;;34.58;16.30;;;;;;;11.93;100.00;101527.63;5131392;27;20486;-62
2021/10/01 01:55:16;;;;;;;33.95;14.95;;;;;;;11.94;100.00;101527.53;5131305;27;20466;-62
2021/10/01 01:57:46;;;;;;;29.98;16.05;;;;;;;11.96;100.00;101530.94;5131235;27;20542;-62
2021/10/01 02:00:12;;;;;;;29.13;14.55;;;;;;;11.94;100.00;101524.84;5130794;27;20015;-62
2021/10/01 02:02:38;;;;;;;32.53;17.08;;;;;;;12.00;100.00;101532.44;5129794;27;20095;-62
2021/10/01 02:05:05;;;;;;;25.75;15.00;;;;;;;12.05;100.00;101529.41;5131056;27;20491;-62
2021/10/01 02:07:32;;;;;;;29.58;16.67;;;;;;;12.07;100.00;101524.78;5130761;27;20062;-62
2021/10/01 02:09:58;;;;;;;28.88;15.77;;;;;;;12.08;100.00;101521.09;5129872;27;20028;-62
2021/10/01 02:12:26;;;;;;;29.92;16.02;;;;;;;12.09;100.00;101526.38;5129943;27;20386;-62
2021/10/01 02:14:53;;;;;;;35.28;17.85;;;;;;;12.12;100.00;101517.22;5131198;27;20079;-62
2021/10/01 02:17:20;;;;;;;20.85;15.30;;;;;;;12.13;100.00;101519.81;5130683;27;20103;-62
2021/10/01 02:19:47;;;;;;;27.48;16.88;;;;;;;12.15;100.00;101517.00;5130699;27;20069;-62
2021/10/01 02:22:16;;;;;;;30.77;16.70;;;;;;;12.19;100.00;101518.47;5130572;27;20580;-62
2021/10/01 02:24:43;;;;;;;26.40;15.88;;;;;;;12.25;100.00;101518.84;5130561;27;20034;-62
2021/10/01 02:27:19;;;;;;;24.08;15.98;;;;;;;12.31;100.00;101517.53;5129009;27;20590;-62
2021/10/01 02:30:00;;;;;;;23.75;14.82;;;;;;;12.33;100.00;101523.66;5130313;27;20382;-62
2021/10/01 02:32:33;;;;;;;28.10;15.40;;;;;;;12.37;100.00;101522.44;5130736;27;20025;-62
2021/10/01 02:35:00;;;;;;;26.98;15.48;;;;;;;12.35;100.00;101519.03;5129149;27;20038;-62
2021/10/01 02:37:26;;;;;;;30.77;14.65;;;;;;;12.36;100.00;101520.75;5130171;27;20027;-61
2021/10/01 02:39:53;;;;;;;35.58;17.02;;;;;;;12.36;100.00;101521.63;5130501;27;20018;-62
2021/10/01 02:42:21;;;;;;;28.40;16.35;;;;;;;12.36;100.00;101520.75;5130432;27;20070;-62
2021/10/01 02:44:48;;;;;;;31.00;16.23;;;;;;;12.37;100.00;101522.44;5128940;27;20438;-63
2021/10/01 02:47:16;;;;;;;30.17;16.42;;;;;;;12.37;100.00;101525.13;5130244;27;20034;-65
2021/10/01 02:49:42;;;;;;;25.15;16.38;;;;;;;12.38;100.00;101530.41;5128782;27;20029;-66
2021/10/01 02:52:27;;;;;;;23.30;16.80;;;;;;;12.45;100.00;101534.34;5129793;27;20538;-66
2021/10/01 02:55:05;;;;;;;26.40;17.58;;;;;;;12.50;100.00;101526.78;5129744;27;20034;-66
2021/10/01 02:57:49;;;;;;;27.65;17.60;;;;;;;12.52;100.00;101524.84;5130171;27;20030;-66
2021/10/01 03:00:15;;;;;;;24.65;17.80;;;;;;;12.60;100.00;101526.91;5129924;27;20037;-66
2021/10/01 03:02:43;;;;;;;25.17;19.20;;;;;;;12.63;100.00;101521.31;5129862;27;20065;-66
2021/10/01 03:05:12;;;;;;;36.42;19.67;;;;;;;12.68;100.00;101521.81;5129692;27;20030;-66
2021/10/01 03:07:40;;;;;;;31.17;21.05;;;;;;;12.73;100.00;101522.31;5129853;27;20488;-66
2021/10/01 03:10:08;;;;;;;27.40;18.65;;;;;;;12.78;100.00;101523.69;5129753;27;20034;-66
2021/10/01 03:12:35;;;;;;;33.50;19.38;;;;;;;12.80;100.00;101513.63;5129810;27;20413;-66
2021/10/01 03:15:03;;;;;;;32.78;21.05;;;;;;;12.87;100.00;101511.34;5129889;27;20411;-66
2021/10/01 03:17:30;;;;;;;25.33;20.13;;;;;;;12.91;100.00;101515.50;5129740;27;20039;-65
2021/10/01 03:19:57;;;;;;;28.27;19.30;;;;;;;12.93;100.00;101516.25;5128691;27;20031;-66
2021/10/01 03:22:27;;;;;;;28.27;18.52;;;;;;;12.98;100.00;101520.28;5129704;27;20023;-65
2021/10/01 03:24:52;;;;;;;31.52;20.48;;;;;;;13.00;100.00;101504.88;5129573;27;20475;-65
2021/10/01 03:27:18;;;;;;;37.97;19.70;;;;;;;13.02;100.00;101507.44;5129513;27;20055;-65
2021/10/01 03:29:44;;;;;;;30.38;19.65;;;;;;;13.04;100.00;101508.19;5130072;27;20027;-64
2021/10/01 03:32:10;;;;;;;27.38;19.33;;;;;;;13.05;100.00;101504.53;5129530;27;20079;-66
2021/10/01 03:34:35;;;;;;;27.27;19.33;;;;;;;13.04;100.00;101500.13;5129536;27;20023;-66
2021/10/01 03:37:01;;;;;;;33.97;21.35;;;;;;;13.11;100.00;101504.03;5127983;27;20030;-66
2021/10/01 03:39:27;;;;;;;31.70;21.25;;;;;;;13.15;100.00;101508.19;5129713;27;20106;-66
2021/10/01 03:41:52;;;;;;;40.28;20.85;;;;;;;13.13;100.00;101496.69;5129577;27;20030;-66
2021/10/01 03:44:18;;;;;;;26.23;18.25;;;;;;;13.18;100.00;101499.88;5129348;27;20030;-66
2021/10/01 03:46:47;;;;;;;25.05;19.10;;;;;;;13.18;100.00;101489.09;5129469;27;20108;-66
2021/10/01 03:49:14;;;;;;;28.42;21.10;;;;;;;13.21;100.00;101491.53;5129507;27;20419;-66
2021/10/01 03:51:39;;;;;;;27.05;20.10;;;;;;;13.25;100.00;101495.69;5133593;27;20027;-66
2021/10/01 03:54:05;;;;;;;29.45;20.25;;;;;;;13.28;100.00;101492.75;5133500;27;20076;-66
2021/10/01 03:56:31;;;;;;;28.98;21.50;;;;;;;13.29;100.00;101489.09;5133859;27;20034;-66
2021/10/01 03:58:56;;;;;;;27.98;20.83;;;;;;;13.29;100.00;101489.94;5133762;27;20031;-65
2021/10/01 04:01:22;;;;;;;29.10;20.17;;;;;;;13.33;100.00;101491.44;5133345;27;20162;-66
2021/10/01 04:03:47;;;;;;;32.08;19.27;;;;;;;13.33;100.00;101487.88;5133421;27;20026;-66
2021/10/01 04:06:13;;;;;;;45.60;21.08;;;;;;;13.32;100.00;101478.09;5133461;27;20054;-66
2021/10/01 04:08:39;;;;;;;33.40;19.95;;;;;;;13.34;100.00;101486.88;5132068;27;20088;-66
2021/10/01 04:11:04;;;;;;;30.38;20.15;;;;;;;13.35;100.00;101486.75;5133330;27;20070;-66
2021/10/01 04:13:30;;;;;;;28.05;20.42;;;;;;;13.36;100.00;101483.09;5133365;27;20027;-66
2021/10/01 04:15:55;;;;;;;31.80;21.25;;;;;;;13.40;100.00;101489.09;5133122;27;20035;-67
2021/10/01 04:18:21;;;;;;;27.05;19.77;;;;;;;13.40;100.00;101487.25;5132709;27;20078;-66
2021/10/01 04:20:47;;;;;;;29.98;21.33;;;;;;;13.40;100.00;101486.38;5133047;27;20722;-66
2021/10/01 04:23:14;;;;;;;28.67;20.10;;;;;;;13.43;100.00;101491.53;5132826;27;20031;-66
2021/10/01 04:25:39;;;;;;;30.15;20.75;;;;;;;13.45;100.00;101494.97;5132927;27;20554;-66
2021/10/01 04:28:06;;;;;;;29.50;21.35;;;;;;;13.44;100.00;101495.94;5131401;27;20106;-66
2021/10/01 04:30:33;;;;;;;25.92;19.67;;;;;;;13.43;100.00;101499.63;5132891;27;20455;-66
2021/10/01 04:33:12;;;;;;;35.70;20.60;;;;;;;13.44;100.00;101502.19;5133116;27;20581;-66
2021/10/01 04:35:37;;;;;;;28.52;19.70;;;;;;;13.47;100.00;101501.06;5132629;27;20541;-66
2021/10/01 04:38:03;;;;;;;28.17;19.20;;;;;;;13.50;100.00;101503.53;5132574;27;20050;-66
2021/10/01 04:40:28;;;;;;;31.52;19.52;;;;;;;13.44;100.00;101494.09;5132659;27;20015;-66
2021/10/01 04:42:54;;;;;;;25.98;19.10;;;;;;;13.49;100.00;101505.38;5133024;27;20023;-65
2021/10/01 04:45:19;;;;;;;26.50;19.55;;;;;;;13.50;100.00;101503.53;5132793;27;20033;-66
2021/10/01 04:47:45;;;;;;;25.17;18.17;;;;;;;13.49;100.00;101504.53;5132674;27;20505;-66
2021/10/01 04:50:11;;;;;;;25.73;19.10;;;;;;;13.50;100.00;101511.63;5132619;27;20108;-66
2021/10/01 04:52:36;;;;;;;27.67;18.02;;;;;;;13.50;100.00;101515.19;5132548;27;20034;-66
2021/10/01 04:55:02;;;;;;;27.45;17.98;;;;;;;13.51;100.00;101513.31;5132752;27;20047;-65
2021/10/01 04:57:27;;;;;;;28.08;19.10;;;;;;;13.50;100.00;101519.69;5132612;27;20031;-66
2021/10/01 04:59:53;;;;;;;24.20;17.38;;;;;;;13.51;100.00;101522.28;5132679;27;20613;-66
2021/10/01 05:02:18;;;;;;;25.75;17.40;;;;;;;13.52;100.00;101520.44;5132474;27;20027;-66
2021/10/01 05:04:44;;;;;;;27.42;17.63;;;;;;;13.50;100.00;101522.41;5131546;27;20031;-67
2021/10/01 05:07:09;;;;;;;27.73;17.52;;;;;;;13.51;100.00;101524.09;5131259;27;20103;-65
2021/10/01 05:09:34;;;;;;;23.55;17.33;;;;;;;13.51;100.00;101524.09;5131422;27;20478;-66
2021/10/01 05:12:00;;;;;;;23.85;17.52;;;;;;;13.54;100.00;101521.16;5132204;27;20022;-67
2021/10/01 05:14:25;;;;;;;25.38;16.50;;;;;;;13.54;100.00;101519.34;5131560;27;20023;-67
2021/10/01 05:16:51;;;;;;;22.83;16.27;;;;;;;13.53;100.00;101512.25;5131839;27;20508;-67
2021/10/01 05:19:16;;;;;;;27.00;16.38;;;;;;;13.55;100.00;101522.91;5131453;27;20031;-66
2021/10/01 05:21:42;;;;;;;20.23;16.13;;;;;;;13.56;100.00;101530.88;5131654;27;20054;-66
2021/10/01 05:24:07;;;;;;;24.83;16.85;;;;;;;13.55;100.00;101520.19;5131370;27;20023;-67
2021/10/01 05:26:33;;;;;;;23.27;16.88;;;;;;;13.57;100.00;101529.00;5130166;27;20162;-66
2021/10/01 05:28:58;;;;;;;23.33;16.55;;;;;;;13.55;100.00;101526.44;5131377;27;20366;-67
2021/10/01 05:31:24;;;;;;;23.25;16.10;;;;;;;13.55;100.00;101528.28;5131338;27;20497;-67
2021/10/01 05:33:50;;;;;;;23.90;16.05;;;;;;;13.56;100.00;101533.56;5129647;27;20027;-67
2021/10/01 05:36:18;;;;;;;24.27;17.75;;;;;;;13.56;100.00;101538.94;5130049;27;20027;-66
2021/10/01 05:38:44;;;;;;;21.00;14.65;;;;;;;13.60;100.00;101545.78;5131511;27;20038;-67
2021/10/01 05:41:09;;;;;;;26.30;17.77;;;;;;;13.56;100.00;101543.47;5131912;27;20026;-66
2021/10/01 05:43:35;;;;;;;21.85;16.95;;;;;;;13.54;100.00;101540.03;5132097;27;20068;-66
2021/10/01 05:46:00;;;;;;;25.80;17.17;;;;;;;13.54;100.00;101538.19;5131663;27;20030;-66
2021/10/01 05:48:29;;;;;;;21.70;16.58;;;;;;;13.58;100.00;101538.81;5125876;27;20081;-66
2021/10/01 05:50:55;;;;;;;25.35;18.25;;;;;;;13.61;100.00;101541.28;5127754;27;20505;-67
2021/10/01 05:54:01;;;;;;;24.65;17.35;;;;;;;13.62;100.00;101534.91;5130302;27;20047;-66
2021/10/01 05:56:13;;;;;;;23.35;17.25;;;;;;;13.62;100.00;101534.91;5127931;27;20488;-66
2021/10/01 05:58:41;;;;;;;25.23;17.50;;;;;;;13.65;100.00;101534.66;5129024;27;20454;-66
2021/10/01 06:01:07;;;;;;;26.13;19.08;;;;;;;13.66;100.00;101539.91;5130573;27;20383;-66
2021/10/01 06:03:33;;;;;;;23.80;17.50;;;;;;;13.69;100.00;101544.19;5130485;27;20550;-67
2021/10/01 06:05:59;;;;;;;27.65;18.00;;;;;;;13.73;100.00;101544.81;5127927;27;20106;-66
2021/10/01 06:08:24;;;;;;;24.00;17.42;;;;;;;13.72;100.00;101541.25;5129673;27;20019;-66
2021/10/01 06:10:50;;;;;;;24.65;18.50;;;;;;;13.75;100.00;101543.69;5130211;27;20027;-66
2021/10/01 06:13:15;;;;;;;25.38;18.35;;;;;;;13.77;100.00;101547.97;5128084;27;20838;-66
2021/10/01 06:15:41;;;;;;;24.17;18.15;;;;;;;13.81;100.00;101536.94;5130086;27;20058;-66
2021/10/01 06:18:07;;;;;;;25.40;18.30;;;;;;;13.82;100.00;101544.03;5129912;27;20099;-66
2021/10/01 06:20:32;;;;;;;26.70;18.83;;;;;;;13.83;100.00;101549.31;5129866;27;20497;-66
2021/10/01 06:22:58;;;;;;;30.27;20.33;;;;;;;13.87;100.00;101553.50;5129560;27;20031;-65
2021/10/01 06:25:24;;;;;;;28.85;20.10;;;;;;;13.89;100.00;101553.38;5130044;27;20031;-67
2021/10/01 06:27:50;;;;;;;32.10;20.92;;;;;;;13.90;100.00;101558.63;5130019;27;20055;-67
2021/10/01 06:30:16;;;;;;;32.05;20.45;;;;;;;13.92;100.00;101551.25;5130361;27;20083;-66
2021/10/01 06:32:41;;;;;;;35.17;21.55;;;;;;;13.94;100.00;101561.91;5129391;27;20031;-66
2021/10/01 06:35:08;;;;;;;38.97;23.70;;;;;;;13.95;100.00;101556.41;5129506;27;20031;-66
2021/10/01 06:37:33;;;;;;;37.53;22.92;;;;;;;13.98;100.00;101558.84;5129038;27;20034;-66
2021/10/01 06:39:59;;;;;;;41.10;25.33;;;;;;;14.00;100.00;101567.69;5126415;27;20011;-65
2021/10/01 06:42:25;;;;;;;38.92;23.98;;;;;;;14.04;100.00;101565.56;5127764;27;20027;-66
2021/10/01 06:44:52;;;;;;;39.58;24.35;;;;;;;14.04;100.00;101563.75;5127650;27;20031;-66
2021/10/01 06:47:22;;;;;;;43.33;24.50;;;;;;;14.08;100.00;101567.03;5129954;27;20027;-66
2021/10/01 06:53:01;;;;;;;43.88;24.45;;;;;;;14.11;100.00;101569.47;5103428;27;20402;-66
2021/10/01 07:36:45;;;;;;;49.78;28.83;;;;;;;14.64;100.00;101592.91;5129334;27;20089;-66
2021/10/01 08:19:53;;;;;;;46.40;30.95;;;;;;;17.37;94.19;101573.13;5129181;28;20586;-66
2021/10/01 08:22:19;;;;;;;44.78;30.83;;;;;;;17.34;94.62;101573.44;5128616;27;20030;-66
2021/10/01 08:24:44;;;;;;;39.50;28.38;;;;;;;17.25;95.51;101579.72;5128921;27;20563;-66
2021/10/01 08:27:10;;;;;;;37.50;25.10;;;;;;;17.20;95.37;101578.47;5129014;28;20328;-67
2021/10/01 08:29:36;;;;;;;33.60;24.77;;;;;;;17.13;95.54;101571.91;5129230;27;20027;-66
2021/10/01 08:32:02;;;;;;;32.70;23.10;;;;;;;17.16;95.91;101580.59;5128883;27;20062;-66
2021/10/01 08:34:32;;;;;;;29.80;21.98;;;;;;;17.13;95.61;101575.50;5128851;27;20039;-67
2021/10/01 08:36:59;;;;;;;25.75;20.63;;;;;;;17.15;94.34;101573.47;5132723;27;20027;-66
2021/10/01 08:39:25;;;;;;;27.58;21.00;;;;;;;17.15;93.88;101575.34;5132639;27;20019;-67
2021/10/01 08:41:51;;;;;;;29.00;20.55;;;;;;;17.12;94.10;101571.06;5132709;27;20482;-63
2021/10/01 08:44:17;;;;;;;24.00;18.65;;;;;;;17.08;94.54;101583.19;5132428;27;20023;-63
2021/10/01 08:46:45;;;;;;;22.30;17.80;;;;;;;17.02;95.09;101566.66;5132530;27;20083;-62
2021/10/01 08:49:12;;;;;;;27.00;20.30;;;;;;;17.07;95.33;101575.22;5130970;27;20465;-64
2021/10/01 08:51:37;;;;;;;23.40;19.10;;;;;;;17.12;94.65;101575.66;5132709;27;20026;-62
2021/10/01 08:54:06;;;;;;;24.42;18.45;;;;;;;17.16;94.95;101563.50;5132379;27;20023;-63
2021/10/01 08:56:32;;;;;;;25.83;19.13;;;;;;;17.15;94.24;101561.81;5132309;27;20027;-63
2021/10/01 08:58:58;;;;;;;23.75;18.73;;;;;;;17.22;94.51;101560.19;5132026;27;20038;-62
2021/10/01 09:01:24;;;;;;;23.63;17.60;;;;;;;17.45;94.97;101565.13;5130861;27;20382;-63
2021/10/01 09:03:50;;;;;;;26.98;19.05;;;;;;;17.71;94.93;101560.72;5132265;27;20042;-63
2021/10/01 09:06:16;;;;;;;22.05;17.27;;;;;;;17.91;93.10;101554.22;5131830;27;20458;-63
2021/10/01 09:08:49;;;;;;;23.30;17.85;;;;;;;17.99;91.76;101557.03;5132058;27;20035;-67
2021/10/01 09:11:15;;;;;;;20.45;17.20;;;;;;;18.00;90.71;101560.59;5130259;27;20023;-65
2021/10/01 09:13:41;;;;;;;24.65;18.10;;;;;;;17.95;90.58;101561.06;5131909;27;20073;-67
2021/10/01 09:16:10;;;;;;;23.10;17.52;;;;;;;17.92;90.29;101563.19;5132178;27;20034;-66
2021/10/01 09:18:37;;;;;;;21.73;17.48;;;;;;;17.84;91.40;101571.25;5131734;27;20130;-66
2021/10/01 09:21:03;;;;;;;21.58;17.05;;;;;;;17.74;90.78;101556.88;5131922;27;20042;-66
2021/10/01 09:23:28;;;;;;;21.90;16.85;;;;;;;17.67;89.76;101563.94;5130243;27;20019;-67
2021/10/01 09:26:06;;;;;;;21.45;16.98;;;;;;;17.60;90.27;101554.66;5131642;27;20023;-67
2021/10/01 09:29:06;;;;;;;19.55;16.20;;;;;;;17.61;89.97;101550.94;5131543;27;20038;-67
2021/10/01 09:31:44;;;;;;;25.20;17.50;;;;;;;17.61;88.99;101554.50;5131696;27;20061;-67
2021/10/01 09:34:34;;;;;;;22.33;16.48;;;;;;;17.56;88.14;101554.13;5130681;27;20034;-67
2021/10/01 09:37:29;;;;;;;20.50;15.68;;;;;;;17.50;88.24;101540.28;5131586;27;20031;-67
2021/10/01 09:40:01;;;;;;;21.65;16.77;;;;;;;17.48;87.96;101547.72;5131604;27;20034;-66
2021/10/01 09:42:33;;;;;;;19.35;15.98;;;;;;;17.47;86.93;101551.41;5130170;27;20039;-66
2021/10/01 09:45:06;;;;;;;22.45;16.70;;;;;;;17.44;88.38;101552.56;5131268;27;20031;-66
2021/10/01 09:47:43;;;;;;;18.10;14.80;;;;;;;17.45;87.88;101548.03;5128882;27;20015;-66
2021/10/01 09:50:21;;;;;;;18.95;15.27;;;;;;;17.41;88.70;101550.13;5129042;27;20527;-63
2021/10/01 09:52:58;;;;;;;25.63;17.20;;;;;;;17.39;90.16;101551.28;5129972;27;20102;-63
2021/10/01 09:55:46;;;;;;;22.17;15.57;;;;;;;17.37;88.84;101547.84;5131025;27;20023;-63
2021/10/01 09:58:16;;;;;;;19.48;16.23;;;;;;;17.32;89.44;101542.03;5129851;27;20039;-63
2021/10/01 10:00:46;;;;;;;19.00;15.57;;;;;;;17.35;89.38;101548.00;5131441;27;20027;-62
2021/10/01 10:03:23;;;;;;;21.80;15.90;;;;;;;17.35;89.46;101547.16;5131222;27;20023;-63
2021/10/01 10:06:02;;;;;;;24.90;15.68;;;;;;;17.36;90.25;101548.88;5131042;27;20482;-63
2021/10/01 10:08:33;;;;;;;20.13;16.20;;;;;;;17.37;89.46;101546.00;5130798;27;20486;-62
2021/10/01 10:11:00;;;;;;;19.15;16.33;;;;;;;17.38;89.14;101544.16;5129646;27;20030;-64
2021/10/01 10:13:48;;;;;;;18.42;15.55;;;;;;;17.42;89.86;101549.16;5130522;27;20030;-62
2021/10/01 10:16:25;;;;;;;17.38;14.40;;;;;;;17.44;90.17;101538.16;5130748;27;20101;-63
2021/10/01 10:18:57;;;;;;;19.65;14.70;;;;;;;17.55;90.26;101541.56;5130735;27;20494;-63
2021/10/01 10:21:23;;;;;;;18.90;15.60;;;;;;;17.61;89.53;101523.81;5130441;27;20391;-61
2021/10/01 10:23:50;;;;;;;21.58;16.48;;;;;;;17.77;89.09;101529.44;5130678;27;20079;-63
2021/10/01 10:26:16;;;;;;;20.20;15.70;;;;;;;17.89;87.92;101534.50;5129210;27;20019;-64
2021/10/01 10:28:44;;;;;;;20.58;15.90;;;;;;;17.99;87.13;101529.88;5129538;27;20034;-62
2021/10/01 10:31:11;;;;;;;19.65;15.65;;;;;;;18.07;86.84;101523.69;5130888;27;20043;-63
2021/10/01 10:33:45;;;;;;;18.63;14.63;;;;;;;18.12;85.99;101523.22;5130481;27;20478;-63
2021/10/01 10:36:27;;;;;;;21.05;15.70;;;;;;;18.14;84.87;101524.75;5130907;27;20490;-63
2021/10/01 10:38:58;;;;;;;19.30;15.73;;;;;;;18.12;85.17;101510.47;5130625;27;20027;-62
2021/10/01 10:41:29;;;;;;;18.08;14.32;;;;;;;18.18;85.21;101514.47;5130202;27;20035;-63
2021/10/01 10:43:56;;;;;;;17.15;14.20;;;;;;;18.16;85.49;101517.31;5130282;27;20480;-63
2021/10/01 10:46:36;;;;;;;18.02;13.48;;;;;;;18.21;85.51;101516.88;5129991;27;20471;-63
2021/10/01 10:49:14;;;;;;;20.23;15.63;;;;;;;18.21;85.47;101508.72;5130203;27;20076;-63
2021/10/01 10:51:58;;;;;;;20.58;15.10;;;;;;;18.23;85.23;101514.84;5128859;27;20119;-64
2021/10/01 10:54:25;;;;;;;22.25;14.68;;;;;;;18.24;84.32;101509.25;5128977;27;20477;-64
2021/10/01 10:57:16;;;;;;;18.13;14.63;;;;;;;18.26;83.04;101515.38;5128624;27;20033;-65
2021/10/01 10:59:48;;;;;;;17.13;13.48;;;;;;;18.26;83.85;101498.22;5120660;27;20031;-64
2021/10/01 11:02:33;;;;;;;18.02;13.75;;;;;;;18.33;83.91;101507.47;5129643;27;20046;-63
2021/10/01 11:05:18;;;;;;;18.75;14.77;;;;;;;18.40;83.98;101498.56;5129705;27;20379;-64
2021/10/01 11:07:56;;;;;;;17.45;13.82;;;;;;;18.46;83.51;101492.50;5128391;27;20547;-63
2021/10/01 11:10:42;;;;;;;17.02;13.55;;;;;;;18.51;83.00;101482.00;5128091;27;20026;-64
2021/10/01 11:13:21;;;;;;;19.70;15.10;;;;;;;18.55;81.90;101482.56;5129758;27;20424;-64
2021/10/01 11:16:08;;;;;;;17.75;13.73;;;;;;;18.58;82.42;101474.97;5129744;27;20027;-63
2021/10/01 11:18:46;;;;;;;18.45;15.05;;;;;;;18.66;81.52;101472.28;5129074;27;20054;-64
2021/10/01 11:23:56;;;;;;;17.58;13.18;;;;;;;18.77;79.67;101465.75;5129501;27;20390;-63
2021/10/01 11:26:30;;;;;;;17.55;13.75;;;;;;;18.84;77.91;101469.53;5127905;27;20027;-64
2021/10/01 11:28:55;;;;;;;14.95;12.95;;;;;;;18.87;79.11;101463.78;5128006;27;20023;-63
2021/10/01 11:31:21;;;;;;;16.80;12.88;;;;;;;18.92;78.39;101464.13;5129223;27;20385;-64
2021/10/01 11:33:51;;;;;;;15.07;13.07;;;;;;;18.95;76.84;101452.94;5129493;27;20092;-64
2021/10/01 11:36:24;;;;;;;18.35;13.48;;;;;;;18.97;76.02;101459.06;5127705;27;20115;-64
2021/10/01 11:39:00;;;;;;;17.25;13.75;;;;;;;18.96;76.13;101458.22;5126714;27;20496;-63
2021/10/01 11:41:25;;;;;;;16.85;11.80;;;;;;;19.01;76.27;101449.56;5125806;27;20056;-63
2021/10/01 11:43:53;;;;;;;15.07;12.18;;;;;;;18.99;76.41;101441.56;5125196;27;20070;-64
2021/10/01 11:46:39;;;;;;;18.83;12.77;;;;;;;19.05;74.24;101440.94;5128405;27;20471;-63
2021/10/01 11:49:19;;;;;;;14.23;11.68;;;;;;;19.10;74.52;101433.16;5128543;27;20031;-62
2021/10/01 11:52:01;;;;;;;14.07;11.52;;;;;;;19.11;75.23;101442.16;5128347;27;20084;-62
2021/10/01 11:54:27;;;;;;;14.20;12.60;;;;;;;19.12;74.94;101441.16;5128075;27;20530;-62
2021/10/01 11:56:55;;;;;;;15.13;13.02;;;;;;;19.17;73.62;101428.75;5126761;28;20115;-62
2021/10/01 11:59:25;;;;;;;15.98;12.15;;;;;;;19.11;74.52;101431.28;5128575;27;20020;-63
2021/10/01 12:01:59;;;;;;;14.88;12.68;;;;;;;19.11;73.47;101432.13;5126999;28;20509;-62
2021/10/01 12:04:33;;;;;;;16.88;12.07;;;;;;;19.10;74.42;101426.84;5127845;27;20092;-63
2021/10/01 12:07:04;;;;;;;15.07;13.02;;;;;;;19.10;75.00;101430.44;5128266;27;20023;-62
2021/10/01 12:09:30;;;;;;;15.10;11.35;;;;;;;19.16;74.50;101418.06;5128355;27;20061;-63
2021/10/01 12:12:03;;;;;;;14.40;11.93;;;;;;;19.19;73.79;101421.28;5132218;27;20051;-62
2021/10/01 12:14:28;;;;;;;15.70;12.82;;;;;;;19.21;73.32;101423.84;5132173;27;20015;-62
2021/10/01 12:16:58;;;;;;;17.08;13.40;;;;;;;19.31;72.23;101417.28;5131857;27;20099;-62
2021/10/01 12:19:25;;;;;;;16.23;12.60;;;;;;;19.26;72.37;101408.78;5132146;27;20088;-62
2021/10/01 12:22:06;;;;;;;14.85;12.18;;;;;;;19.27;73.21;101410.47;5132061;27;20035;-63
2021/10/01 12:24:50;;;;;;;17.52;12.65;;;;;;;19.27;72.61;101406.91;5131835;27;20027;-63
2021/10/01 12:27:17;;;;;;;16.42;12.68;;;;;;;19.27;72.23;101399.59;5132066;27;20122;-62
2021/10/01 12:29:51;;;;;;;17.77;13.43;;;;;;;19.28;71.98;101397.75;5132209;27;20042;-62
2021/10/01 12:32:18;;;;;;;;;;;;;;;19.24;71.43;101394.44;5132369;27;20027;-62
2021/10/01 12:34:56;;;;;;;15.88;11.80;;;;;;;19.26;71.55;101394.31;5130581;27;19922;-62
2021/10/01 12:37:27;;;;;;;15.10;11.55;;;;;;;19.28;71.70;101392.31;5130290;27;20031;-62
2021/10/01 12:39:57;;;;;;;15.85;11.63;;;;;;;19.28;71.95;101389.56;5131167;27;20430;-62
2021/10/01 12:42:29;;;;;;;18.02;12.45;;;;;;;19.25;71.26;101387.97;5131553;27;20027;-63
2021/10/01 12:45:06;;;;;;;12.63;10.32;;;;;;;19.27;71.01;101391.44;5130178;27;20019;-63